sensor_id;sensor_type;location;lat;lon;timestamp;pressure;altitude;pressure_sealevel;temperature;humidity
11672;BME280;5892;43.412;24.612;2023-05-25T00:00:24;99847.66;;;17.91;100.00
11672;BME280;5892;43.412;24.612;2023-05-25T00:02:51;99843.72;;;17.92;100.00
11672;BME280;5892;43.412;24.612;2023-05-25T00:05:20;99840.34;;;17.79;100.00
11672;BME280;5892;43.412;24.612;2023-05-25T00:07:52;99844.28;;;17.78;100.00
11672;BME280;5892;43.412;24.612;2023-05-25T00:10:21;99862.63;;;17.86;100.00
11672;BME280;5892;43.412;24.612;2023-05-25T00:12:48;99860.91;;;17.78;100.00
11672;BME280;5892;43.412;24.612;2023-05-25T00:15:15;99858.16;;;17.78;100.00
11672;BME280;5892;43.412;24.612;2023-05-25T00:17:42;99866.47;;;17.78;100.00
11672;BME280;5892;43.412;24.612;2023-05-25T00:20:10;99863.38;;;17.60;100.00
11672;BME280;5892;43.412;24.612;2023-05-25T00:22:39;99858.09;;;17.55;100.00
11672;BME280;5892;43.412;24.612;2023-05-25T00:25:09;99863.59;;;17.52;100.00
11672;BME280;5892;43.412;24.612;2023-05-25T00:27:38;99863.59;;;17.52;100.00
11672;BME280;5892;43.412;24.612;2023-05-25T00:30:06;99861.22;;;17.54;100.00
11672;BME280;5892;43.412;24.612;2023-05-25T00:32:33;99851.84;;;17.39;100.00
11672;BME280;5892;43.412;24.612;2023-05-25T00:35:00;99864.59;;;17.44;100.00
11672;BME280;5892;43.412;24.612;2023-05-25T00:37:26;99842.28;;;17.14;100.00
11672;BME280;5892;43.412;24.612;2023-05-25T00:39:53;99870.22;;;17.28;100.00
11672;BME280;5892;43.412;24.612;2023-05-25T00:42:21;99862.00;;;17.12;100.00
11672;BME280;5892;43.412;24.612;2023-05-25T00:44:50;99867.41;;;17.24;100.00
11672;BME280;5892;43.412;24.612;2023-05-25T00:47:16;99866.59;;;17.24;100.00
11672;BME280;5892;43.412;24.612;2023-05-25T00:49:43;99867.56;;;17.31;100.00
11672;BME280;5892;43.412;24.612;2023-05-25T00:52:12;99858.22;;;17.20;100.00
11672;BME280;5892;43.412;24.612;2023-05-25T00:54:39;99873.44;;;17.30;100.00
11672;BME280;5892;43.412;24.612;2023-05-25T00:57:07;99873.44;;;17.30;100.00
11672;BME280;5892;43.412;24.612;2023-05-25T00:59:37;99873.44;;;17.30;100.00
11672;BME280;5892;43.412;24.612;2023-05-25T01:02:09;99880.31;;;17.36;100.00
11672;BME280;5892;43.412;24.612;2023-05-25T01:04:40;99875.06;;;17.31;100.00
11672;BME280;5892;43.412;24.612;2023-05-25T01:07:10;99878.25;;;17.33;100.00
11672;BME280;5892;43.412;24.612;2023-05-25T01:09:38;99873.81;;;17.28;100.00
11672;BME280;5892;43.412;24.612;2023-05-25T01:12:08;99869.72;;;17.22;100.00
11672;BME280;5892;43.412;24.612;2023-05-25T01:14:37;99869.81;;;17.26;100.00
11672;BME280;5892;43.412;24.612;2023-05-25T01:17:04;99866.53;;;17.20;100.00
11672;BME280;5892;43.412;24.612;2023-05-25T01:19:33;99867.25;;;17.17;100.00
11672;BME280;5892;43.412;24.612;2023-05-25T01:22:07;99867.53;;;17.12;100.00
11672;BME280;5892;43.412;24.612;2023-05-25T01:24:39;99855.84;;;17.00;100.00
11672;BME280;5892;43.412;24.612;2023-05-25T01:27:13;99858.50;;;16.96;100.00
11672;BME280;5892;43.412;24.612;2023-05-25T01:29:43;99859.19;;;16.89;100.00
11672;BME280;5892;43.412;24.612;2023-05-25T01:32:12;99851.81;;;16.78;100.00
11672;BME280;5892;43.412;24.612;2023-05-25T01:34:40;99867.78;;;16.84;100.00
11672;BME280;5892;43.412;24.612;2023-05-25T01:37:10;99854.13;;;16.76;100.00
11672;BME280;5892;43.412;24.612;2023-05-25T01:39:38;99859.38;;;16.62;100.00
11672;BME280;5892;43.412;24.612;2023-05-25T01:42:05;99862.81;;;16.74;100.00
11672;BME280;5892;43.412;24.612;2023-05-25T01:44:32;99861.22;;;16.73;100.00
11672;BME280;5892;43.412;24.612;2023-05-25T01:47:02;99875.03;;;16.73;100.00
11672;BME280;5892;43.412;24.612;2023-05-25T01:49:36;99872.97;;;16.70;100.00
11672;BME280;5892;43.412;24.612;2023-05-25T01:52:14;99865.50;;;16.71;100.00
11672;BME280;5892;43.412;24.612;2023-05-25T01:54:46;99874.66;;;16.75;100.00
11672;BME280;5892;43.412;24.612;2023-05-25T01:57:14;99861.84;;;16.67;100.00
11672;BME280;5892;43.412;24.612;2023-05-25T01:59:44;99838.34;;;16.41;100.00
11672;BME280;5892;43.412;24.612;2023-05-25T02:02:13;99871.03;;;16.71;100.00
11672;BME280;5892;43.412;24.612;2023-05-25T02:04:41;99892.72;;;16.69;100.00
11672;BME280;5892;43.412;24.612;2023-05-25T02:07:08;99873.78;;;16.71;100.00
11672;BME280;5892;43.412;24.612;2023-05-25T02:09:36;99875.06;;;16.58;100.00
11672;BME280;5892;43.412;24.612;2023-05-25T02:12:04;99857.50;;;16.50;100.00
11672;BME280;5892;43.412;24.612;2023-05-25T02:14:31;99876.69;;;16.59;100.00
11672;BME280;5892;43.412;24.612;2023-05-25T02:16:58;99878.28;;;16.60;100.00
11672;BME280;5892;43.412;24.612;2023-05-25T02:19:26;99858.94;;;16.44;100.00
11672;BME280;5892;43.412;24.612;2023-05-25T02:21:53;99867.59;;;16.42;100.00
11672;BME280;5892;43.412;24.612;2023-05-25T02:24:21;99884.78;;;16.51;100.00
11672;BME280;5892;43.412;24.612;2023-05-25T02:26:50;99882.84;;;16.52;100.00
11672;BME280;5892;43.412;24.612;2023-05-25T02:29:17;99849.81;;;16.43;100.00
11672;BME280;5892;43.412;24.612;2023-05-25T02:31:44;99870.63;;;16.53;100.00
11672;BME280;5892;43.412;24.612;2023-05-25T02:34:11;99885.59;;;16.68;100.00
11672;BME280;5892;43.412;24.612;2023-05-25T02:36:39;99880.75;;;16.65;100.00
11672;BME280;5892;43.412;24.612;2023-05-25T02:39:08;99884.84;;;16.71;100.00
11672;BME280;5892;43.412;24.612;2023-05-25T02:41:36;99891.47;;;16.50;100.00
11672;BME280;5892;43.412;24.612;2023-05-25T02:44:04;99888.28;;;16.48;100.00
11672;BME280;5892;43.412;24.612;2023-05-25T02:46:31;99892.63;;;16.49;100.00
11672;BME280;5892;43.412;24.612;2023-05-25T02:48:59;99878.66;;;16.42;100.00
11672;BME280;5892;43.412;24.612;2023-05-25T02:51:26;99893.63;;;16.57;100.00
11672;BME280;5892;43.412;24.612;2023-05-25T02:53:53;99896.66;;;16.68;100.00
11672;BME280;5892;43.412;24.612;2023-05-25T02:56:20;99906.28;;;16.74;100.00
11672;BME280;5892;43.412;24.612;2023-05-25T02:58:48;99906.00;;;16.79;100.00
11672;BME280;5892;43.412;24.612;2023-05-25T03:01:16;99910.78;;;16.82;100.00
11672;BME280;5892;43.412;24.612;2023-05-25T03:03:43;99909.94;;;16.97;100.00
11672;BME280;5892;43.412;24.612;2023-05-25T03:06:11;99908.34;;;16.96;100.00
11672;BME280;5892;43.412;24.612;2023-05-25T03:08:38;99904.13;;;17.02;100.00
11672;BME280;5892;43.412;24.612;2023-05-25T03:11:05;99897.59;;;17.10;100.00
11672;BME280;5892;43.412;24.612;2023-05-25T03:13:32;99902.53;;;17.20;100.00
11672;BME280;5892;43.412;24.612;2023-05-25T03:15:59;99906.00;;;17.17;100.00
11672;BME280;5892;43.412;24.612;2023-05-25T03:18:28;99896.97;;;17.01;100.00
11672;BME280;5892;43.412;24.612;2023-05-25T03:20:54;99909.06;;;17.12;100.00
11672;BME280;5892;43.412;24.612;2023-05-25T03:23:21;99917.47;;;17.16;100.00
11672;BME280;5892;43.412;24.612;2023-05-25T03:25:48;99925.03;;;17.19;100.00
11672;BME280;5892;43.412;24.612;2023-05-25T03:28:15;99938.06;;;17.18;100.00
11672;BME280;5892;43.412;24.612;2023-05-25T03:30:42;99919.66;;;17.26;100.00
11672;BME280;5892;43.412;24.612;2023-05-25T03:33:09;99912.94;;;17.08;100.00
11672;BME280;5892;43.412;24.612;2023-05-25T03:35:39;99920.66;;;17.18;100.00
11672;BME280;5892;43.412;24.612;2023-05-25T03:38:06;99921.25;;;17.27;100.00
11672;BME280;5892;43.412;24.612;2023-05-25T03:40:33;99920.28;;;17.38;100.00
11672;BME280;5892;43.412;24.612;2023-05-25T03:43:00;99935.09;;;17.46;100.00
11672;BME280;5892;43.412;24.612;2023-05-25T03:45:27;99943.63;;;17.57;100.00
11672;BME280;5892;43.412;24.612;2023-05-25T03:47:54;99941.88;;;17.68;100.00
11672;BME280;5892;43.412;24.612;2023-05-25T03:50:20;99949.97;;;17.76;100.00
11672;BME280;5892;43.412;24.612;2023-05-25T03:52:49;99957.22;;;17.62;100.00
11672;BME280;5892;43.412;24.612;2023-05-25T03:55:16;99944.50;;;17.61;100.00
11672;BME280;5892;43.412;24.612;2023-05-25T03:57:44;99947.19;;;17.76;100.00
11672;BME280;5892;43.412;24.612;2023-05-25T04:00:12;99955.97;;;18.01;100.00
11672;BME280;5892;43.412;24.612;2023-05-25T04:02:39;99961.38;;;18.17;100.00
11672;BME280;5892;43.412;24.612;2023-05-25T04:05:06;99950.78;;;18.23;100.00
11672;BME280;5892;43.412;24.612;2023-05-25T04:07:33;99969.34;;;18.18;100.00
11672;BME280;5892;43.412;24.612;2023-05-25T04:10:03;99956.53;;;18.10;100.00
11672;BME280;5892;43.412;24.612;2023-05-25T04:12:30;99972.50;;;18.40;100.00
11672;BME280;5892;43.412;24.612;2023-05-25T04:14:56;99985.88;;;18.57;100.00
11672;BME280;5892;43.412;24.612;2023-05-25T04:17:23;99989.84;;;18.56;100.00
11672;BME280;5892;43.412;24.612;2023-05-25T04:19:50;99997.88;;;18.65;100.00
11672;BME280;5892;43.412;24.612;2023-05-25T04:22:17;99987.06;;;18.82;100.00
11672;BME280;5892;43.412;24.612;2023-05-25T04:24:45;99985.19;;;18.90;100.00
11672;BME280;5892;43.412;24.612;2023-05-25T04:27:13;99991.88;;;18.85;100.00
11672;BME280;5892;43.412;24.612;2023-05-25T04:29:40;99994.44;;;18.97;100.00
11672;BME280;5892;43.412;24.612;2023-05-25T04:32:07;100001.47;;;18.91;100.00
11672;BME280;5892;43.412;24.612;2023-05-25T04:34:35;100005.59;;;19.01;100.00
11672;BME280;5892;43.412;24.612;2023-05-25T04:37:02;100002.97;;;18.85;100.00
11672;BME280;5892;43.412;24.612;2023-05-25T04:39:30;100003.94;;;18.96;100.00
11672;BME280;5892;43.412;24.612;2023-05-25T04:41:57;99993.69;;;19.00;100.00
11672;BME280;5892;43.412;24.612;2023-05-25T04:44:27;99997.81;;;19.10;100.00
11672;BME280;5892;43.412;24.612;2023-05-25T04:46:55;100000.31;;;19.19;100.00
11672;BME280;5892;43.412;24.612;2023-05-25T04:49:22;100001.19;;;19.26;100.00
11672;BME280;5892;43.412;24.612;2023-05-25T04:51:49;99997.03;;;19.43;100.00
11672;BME280;5892;43.412;24.612;2023-05-25T04:54:16;99996.34;;;19.46;100.00
11672;BME280;5892;43.412;24.612;2023-05-25T04:56:43;100002.59;;;19.43;100.00
11672;BME280;5892;43.412;24.612;2023-05-25T04:59:10;99995.13;;;19.47;100.00
11672;BME280;5892;43.412;24.612;2023-05-25T05:01:38;99991.94;;;19.45;100.00
11672;BME280;5892;43.412;24.612;2023-05-25T05:04:06;99993.56;;;19.46;100.00
11672;BME280;5892;43.412;24.612;2023-05-25T05:06:33;99967.59;;;19.35;100.00
11672;BME280;5892;43.412;24.612;2023-05-25T05:09:01;99994.91;;;19.59;100.00
11672;BME280;5892;43.412;24.612;2023-05-25T05:11:28;100000.97;;;19.68;100.00
11672;BME280;5892;43.412;24.612;2023-05-25T05:13:55;99988.28;;;19.71;100.00
11672;BME280;5892;43.412;24.612;2023-05-25T05:16:23;99981.38;;;19.91;99.08
11672;BME280;5892;43.412;24.612;2023-05-25T05:18:51;99981.09;;;20.03;97.52
11672;BME280;5892;43.412;24.612;2023-05-25T05:21:18;99982.81;;;20.15;96.33
11672;BME280;5892;43.412;24.612;2023-05-25T05:23:45;99991.22;;;20.22;95.35
11672;BME280;5892;43.412;24.612;2023-05-25T05:26:12;99995.00;;;20.40;95.36
11672;BME280;5892;43.412;24.612;2023-05-25T05:28:40;99993.91;;;20.52;94.49
11672;BME280;5892;43.412;24.612;2023-05-25T05:31:07;99993.97;;;20.62;93.33
11672;BME280;5892;43.412;24.612;2023-05-25T05:33:34;100001.97;;;20.64;92.52
11672;BME280;5892;43.412;24.612;2023-05-25T05:36:03;99997.22;;;20.68;92.61
11672;BME280;5892;43.412;24.612;2023-05-25T05:38:30;99940.69;;;20.16;92.73
11672;BME280;5892;43.412;24.612;2023-05-25T05:40:56;100011.13;;;20.64;93.26
11672;BME280;5892;43.412;24.612;2023-05-25T05:43:23;100010.00;;;20.73;92.87
11672;BME280;5892;43.412;24.612;2023-05-25T05:45:50;100006.81;;;20.74;92.62
11672;BME280;5892;43.412;24.612;2023-05-25T05:48:17;100011.47;;;20.59;93.54
11672;BME280;5892;43.412;24.612;2023-05-25T05:50:44;100003.91;;;20.56;93.77
11672;BME280;5892;43.412;24.612;2023-05-25T05:53:12;100006.25;;;20.54;94.07
11672;BME280;5892;43.412;24.612;2023-05-25T05:55:39;100004.66;;;20.53;94.18
11672;BME280;5892;43.412;24.612;2023-05-25T05:58:06;100009.56;;;20.67;94.73
11672;BME280;5892;43.412;24.612;2023-05-25T06:00:33;100011.84;;;20.58;95.19
11672;BME280;5892;43.412;24.612;2023-05-25T06:03:00;100012.66;;;20.58;95.14
11672;BME280;5892;43.412;24.612;2023-05-25T06:05:27;100025.75;;;20.54;95.44
11672;BME280;5892;43.412;24.612;2023-05-25T06:07:54;100012.28;;;20.63;96.61
11672;BME280;5892;43.412;24.612;2023-05-25T06:10:22;100008.78;;;20.73;96.63
11672;BME280;5892;43.412;24.612;2023-05-25T06:12:49;100028.41;;;20.88;96.69
11672;BME280;5892;43.412;24.612;2023-05-25T06:15:16;100026.00;;;20.83;97.07
11672;BME280;5892;43.412;24.612;2023-05-25T06:17:43;100023.31;;;20.49;100.00
11672;BME280;5892;43.412;24.612;2023-05-25T06:20:10;100028.69;;;20.72;99.40
11672;BME280;5892;43.412;24.612;2023-05-25T06:22:39;100032.31;;;20.80;97.19
11672;BME280;5892;43.412;24.612;2023-05-25T06:25:06;100037.88;;;20.80;97.12
11672;BME280;5892;43.412;24.612;2023-05-25T06:27:36;100046.09;;;21.13;94.68
11672;BME280;5892;43.412;24.612;2023-05-25T06:30:03;100039.81;;;21.23;93.29
11672;BME280;5892;43.412;24.612;2023-05-25T06:32:30;100050.59;;;21.28;93.16
11672;BME280;5892;43.412;24.612;2023-05-25T06:34:57;100055.31;;;21.17;93.83
11672;BME280;5892;43.412;24.612;2023-05-25T06:37:24;100061.06;;;21.45;93.82
11672;BME280;5892;43.412;24.612;2023-05-25T06:39:51;100068.72;;;21.63;91.94
11672;BME280;5892;43.412;24.612;2023-05-25T06:42:18;100064.28;;;21.54;91.40
11672;BME280;5892;43.412;24.612;2023-05-25T06:44:46;100068.00;;;21.76;89.45
11672;BME280;5892;43.412;24.612;2023-05-25T06:47:13;100064.59;;;22.18;87.36
11672;BME280;5892;43.412;24.612;2023-05-25T06:49:40;100052.25;;;22.40;84.48
11672;BME280;5892;43.412;24.612;2023-05-25T06:52:07;100077.06;;;22.74;81.94
11672;BME280;5892;43.412;24.612;2023-05-25T06:54:33;100076.63;;;22.65;82.15
11672;BME280;5892;43.412;24.612;2023-05-25T06:57:00;100074.63;;;22.62;81.65
11672;BME280;5892;43.412;24.612;2023-05-25T06:59:27;100072.66;;;23.15;80.68
11672;BME280;5892;43.412;24.612;2023-05-25T07:01:55;100059.84;;;23.43;78.13
11672;BME280;5892;43.412;24.612;2023-05-25T07:04:23;100044.28;;;23.45;77.68
11672;BME280;5892;43.412;24.612;2023-05-25T07:06:50;100066.59;;;23.63;77.56
11672;BME280;5892;43.412;24.612;2023-05-25T07:09:17;100039.06;;;23.44;77.74
11672;BME280;5892;43.412;24.612;2023-05-25T07:11:44;100029.06;;;23.57;75.44
11672;BME280;5892;43.412;24.612;2023-05-25T07:14:11;100067.09;;;24.34;73.93
11672;BME280;5892;43.412;24.612;2023-05-25T07:16:38;100066.66;;;24.43;73.85
11672;BME280;5892;43.412;24.612;2023-05-25T07:19:06;100066.13;;;24.62;73.06
11672;BME280;5892;43.412;24.612;2023-05-25T07:21:33;100067.03;;;25.00;72.16
11672;BME280;5892;43.412;24.612;2023-05-25T07:24:01;100048.66;;;24.44;72.46
11672;BME280;5892;43.412;24.612;2023-05-25T07:26:29;100074.03;;;24.74;71.63
11672;BME280;5892;43.412;24.612;2023-05-25T07:28:56;100068.44;;;24.71;71.58
11672;BME280;5892;43.412;24.612;2023-05-25T07:31:23;100079.25;;;24.72;72.35
11672;BME280;5892;43.412;24.612;2023-05-25T07:33:50;100071.28;;;24.67;71.52
11672;BME280;5892;43.412;24.612;2023-05-25T07:36:19;100086.56;;;25.11;71.37
11672;BME280;5892;43.412;24.612;2023-05-25T07:38:49;100088.66;;;25.00;72.15
11672;BME280;5892;43.412;24.612;2023-05-25T07:41:17;100084.31;;;24.95;72.18
11672;BME280;5892;43.412;24.612;2023-05-25T07:43:43;100090.72;;;24.96;72.00
11672;BME280;5892;43.412;24.612;2023-05-25T07:46:11;100088.09;;;25.19;71.85
11672;BME280;5892;43.412;24.612;2023-05-25T07:48:38;100078.81;;;24.77;73.60
11672;BME280;5892;43.412;24.612;2023-05-25T07:51:05;100062.63;;;24.47;74.05
11672;BME280;5892;43.412;24.612;2023-05-25T07:53:33;100092.44;;;24.72;74.31
11672;BME280;5892;43.412;24.612;2023-05-25T07:56:01;100092.38;;;24.86;73.84
11672;BME280;5892;43.412;24.612;2023-05-25T07:58:29;100085.50;;;24.94;73.58
11672;BME280;5892;43.412;24.612;2023-05-25T08:00:56;100084.72;;;25.35;72.57
11672;BME280;5892;43.412;24.612;2023-05-25T08:03:27;100081.06;;;25.41;70.96
11672;BME280;5892;43.412;24.612;2023-05-25T08:05:53;100077.50;;;25.37;70.84
11672;BME280;5892;43.412;24.612;2023-05-25T08:08:20;100088.53;;;25.58;70.53
11672;BME280;5892;43.412;24.612;2023-05-25T08:10:50;100094.72;;;25.77;70.18
11672;BME280;5892;43.412;24.612;2023-05-25T08:13:17;100086.34;;;26.07;69.57
11672;BME280;5892;43.412;24.612;2023-05-25T08:15:44;100084.38;;;26.04;68.16
11672;BME280;5892;43.412;24.612;2023-05-25T08:18:11;100052.34;;;25.67;67.44
11672;BME280;5892;43.412;24.612;2023-05-25T08:20:41;100072.47;;;25.93;67.27
11672;BME280;5892;43.412;24.612;2023-05-25T08:23:07;100082.38;;;26.04;67.63
11672;BME280;5892;43.412;24.612;2023-05-25T08:25:35;100083.16;;;26.05;67.38
11672;BME280;5892;43.412;24.612;2023-05-25T08:28:03;100084.88;;;26.29;66.76
11672;BME280;5892;43.412;24.612;2023-05-25T08:30:30;100044.47;;;25.89;66.94
11672;BME280;5892;43.412;24.612;2023-05-25T08:32:58;100080.31;;;26.39;66.65
11672;BME280;5892;43.412;24.612;2023-05-25T08:35:25;100077.56;;;26.01;66.98
11672;BME280;5892;43.412;24.612;2023-05-25T08:37:51;100079.09;;;25.76;69.31
11672;BME280;5892;43.412;24.612;2023-05-25T08:40:21;100081.03;;;26.16;69.03
11672;BME280;5892;43.412;24.612;2023-05-25T08:42:51;100085.56;;;26.06;70.42
11672;BME280;5892;43.412;24.612;2023-05-25T08:45:19;100092.59;;;26.18;67.71
11672;BME280;5892;43.412;24.612;2023-05-25T08:47:47;100071.53;;;26.06;68.97
11672;BME280;5892;43.412;24.612;2023-05-25T08:50:15;100077.31;;;26.26;67.87
11672;BME280;5892;43.412;24.612;2023-05-25T08:52:48;100098.75;;;26.40;67.57
11672;BME280;5892;43.412;24.612;2023-05-25T08:55:17;100090.97;;;26.51;67.79
11672;BME280;5892;43.412;24.612;2023-05-25T08:57:48;100081.97;;;26.63;67.06
11672;BME280;5892;43.412;24.612;2023-05-25T09:00:24;100071.25;;;26.54;66.26
11672;BME280;5892;43.412;24.612;2023-05-25T09:02:59;100087.63;;;26.33;66.28
11672;BME280;5892;43.412;24.612;2023-05-25T09:05:32;100089.59;;;26.63;66.46
11672;BME280;5892;43.412;24.612;2023-05-25T09:08:01;100082.38;;;26.62;67.33
11672;BME280;5892;43.412;24.612;2023-05-25T09:10:29;100082.88;;;26.80;68.85
11672;BME280;5892;43.412;24.612;2023-05-25T09:12:58;100092.91;;;26.81;68.58
11672;BME280;5892;43.412;24.612;2023-05-25T09:15:27;100088.66;;;26.73;67.24
11672;BME280;5892;43.412;24.612;2023-05-25T09:17:54;100094.34;;;26.69;65.50
11672;BME280;5892;43.412;24.612;2023-05-25T09:20:23;100088.31;;;26.40;68.40
11672;BME280;5892;43.412;24.612;2023-05-25T09:22:56;100093.41;;;26.76;69.89
11672;BME280;5892;43.412;24.612;2023-05-25T09:25:22;100078.19;;;26.73;69.31
11672;BME280;5892;43.412;24.612;2023-05-25T09:27:54;100078.06;;;26.80;67.29
11672;BME280;5892;43.412;24.612;2023-05-25T09:30:22;100057.75;;;26.96;64.56
11672;BME280;5892;43.412;24.612;2023-05-25T09:32:50;100069.66;;;27.27;64.76
11672;BME280;5892;43.412;24.612;2023-05-25T09:35:17;100080.16;;;27.26;64.62
11672;BME280;5892;43.412;24.612;2023-05-25T09:37:44;100077.41;;;27.42;65.00
11672;BME280;5892;43.412;24.612;2023-05-25T09:40:13;100082.75;;;27.60;63.68
11672;BME280;5892;43.412;24.612;2023-05-25T09:42:41;100061.19;;;27.30;63.14
11672;BME280;5892;43.412;24.612;2023-05-25T09:45:08;100073.91;;;26.92;64.63
11672;BME280;5892;43.412;24.612;2023-05-25T09:47:35;100074.84;;;26.82;65.86
11672;BME280;5892;43.412;24.612;2023-05-25T09:50:05;100069.56;;;26.87;62.73
11672;BME280;5892;43.412;24.612;2023-05-25T09:52:34;100075.84;;;27.18;63.90
11672;BME280;5892;43.412;24.612;2023-05-25T09:55:02;100077.03;;;27.21;62.80
11672;BME280;5892;43.412;24.612;2023-05-25T09:57:29;100070.72;;;27.36;63.95
11672;BME280;5892;43.412;24.612;2023-05-25T09:59:55;100064.28;;;27.79;61.93
11672;BME280;5892;43.412;24.612;2023-05-25T10:02:22;100061.97;;;27.74;62.14
11672;BME280;5892;43.412;24.612;2023-05-25T10:04:50;100071.25;;;27.91;60.59
11672;BME280;5892;43.412;24.612;2023-05-25T10:07:19;100047.09;;;28.13;58.93
11672;BME280;5892;43.412;24.612;2023-05-25T10:09:46;100064.53;;;28.24;56.55
11672;BME280;5892;43.412;24.612;2023-05-25T10:12:18;100033.59;;;28.40;56.74
11672;BME280;5892;43.412;24.612;2023-05-25T10:14:48;100050.59;;;28.53;55.82
11672;BME280;5892;43.412;24.612;2023-05-25T10:17:20;100041.34;;;28.69;55.85
11672;BME280;5892;43.412;24.612;2023-05-25T10:19:53;100042.44;;;28.75;54.41
11672;BME280;5892;43.412;24.612;2023-05-25T10:22:25;100041.25;;;28.56;55.09
11672;BME280;5892;43.412;24.612;2023-05-25T10:24:58;100029.75;;;28.83;54.25
11672;BME280;5892;43.412;24.612;2023-05-25T10:27:28;100028.25;;;28.78;52.88
11672;BME280;5892;43.412;24.612;2023-05-25T10:29:58;100024.97;;;28.80;51.10
11672;BME280;5892;43.412;24.612;2023-05-25T10:32:30;100015.91;;;28.88;51.64
11672;BME280;5892;43.412;24.612;2023-05-25T10:34:58;100013.78;;;28.92;51.60
11672;BME280;5892;43.412;24.612;2023-05-25T10:37:28;99974.84;;;28.87;50.92
11672;BME280;5892;43.412;24.612;2023-05-25T10:39:59;100011.16;;;29.30;50.20
11672;BME280;5892;43.412;24.612;2023-05-25T10:42:27;100000.72;;;29.15;50.51
11672;BME280;5892;43.412;24.612;2023-05-25T10:44:55;100001.19;;;29.26;50.80
11672;BME280;5892;43.412;24.612;2023-05-25T10:47:23;99997.06;;;29.30;50.31
11672;BME280;5892;43.412;24.612;2023-05-25T10:49:51;99965.44;;;29.06;49.45
11672;BME280;5892;43.412;24.612;2023-05-25T10:52:19;99992.97;;;28.70;49.67
11672;BME280;5892;43.412;24.612;2023-05-25T10:54:47;99986.31;;;29.25;49.33
11672;BME280;5892;43.412;24.612;2023-05-25T10:57:18;99979.66;;;28.71;50.14
11672;BME280;5892;43.412;24.612;2023-05-25T10:59:49;99976.59;;;28.65;49.82
11672;BME280;5892;43.412;24.612;2023-05-25T11:02:16;99950.44;;;27.96;50.13
11672;BME280;5892;43.412;24.612;2023-05-25T11:04:47;99953.88;;;28.56;49.10
11672;BME280;5892;43.412;24.612;2023-05-25T11:07:15;99956.00;;;28.68;50.08
11672;BME280;5892;43.412;24.612;2023-05-25T11:09:57;99955.44;;;28.89;47.75
11672;BME280;5892;43.412;24.612;2023-05-25T11:12:25;99951.97;;;29.27;48.60
11672;BME280;5892;43.412;24.612;2023-05-25T11:15:13;99942.66;;;29.71;47.56
11672;BME280;5892;43.412;24.612;2023-05-25T11:20:27;99937.69;;;29.75;47.79
11672;BME280;5892;43.412;24.612;2023-05-25T11:22:56;99918.19;;;29.52;47.34
11672;BME280;5892;43.412;24.612;2023-05-25T11:25:38;99942.84;;;29.64;47.61
11672;BME280;5892;43.412;24.612;2023-05-25T11:28:06;99942.97;;;29.61;46.87
11672;BME280;5892;43.412;24.612;2023-05-25T11:30:35;99943.59;;;29.52;47.81
11672;BME280;5892;43.412;24.612;2023-05-25T11:33:02;99916.06;;;29.15;47.25
11672;BME280;5892;43.412;24.612;2023-05-25T11:35:30;99941.09;;;29.13;47.19
11672;BME280;5892;43.412;24.612;2023-05-25T11:38:04;99924.06;;;28.87;47.25
11672;BME280;5892;43.412;24.612;2023-05-25T11:40:31;99937.09;;;28.97;48.28
11672;BME280;5892;43.412;24.612;2023-05-25T11:43:01;99943.09;;;28.99;48.41
11672;BME280;5892;43.412;24.612;2023-05-25T11:45:28;99941.91;;;29.13;46.46
11672;BME280;5892;43.412;24.612;2023-05-25T11:47:58;99942.06;;;29.51;44.27
11672;BME280;5892;43.412;24.612;2023-05-25T11:50:25;99929.66;;;29.61;44.69
11672;BME280;5892;43.412;24.612;2023-05-25T11:52:53;99922.78;;;29.87;42.91
11672;BME280;5892;43.412;24.612;2023-05-25T11:55:20;99923.84;;;29.94;43.01
11672;BME280;5892;43.412;24.612;2023-05-25T11:57:54;99922.91;;;30.22;43.80
11672;BME280;5892;43.412;24.612;2023-05-25T12:00:26;99924.47;;;30.36;41.34
11672;BME280;5892;43.412;24.612;2023-05-25T12:02:54;99914.09;;;29.95;42.32
11672;BME280;5892;43.412;24.612;2023-05-25T12:05:22;99920.44;;;29.99;43.82
11672;BME280;5892;43.412;24.612;2023-05-25T12:07:49;99913.84;;;30.27;42.45
11672;BME280;5892;43.412;24.612;2023-05-25T12:10:16;99915.00;;;29.92;43.60
11672;BME280;5892;43.412;24.612;2023-05-25T12:12:45;99912.81;;;29.70;41.80
11672;BME280;5892;43.412;24.612;2023-05-25T12:15:14;99915.88;;;29.76;42.69
11672;BME280;5892;43.412;24.612;2023-05-25T12:17:43;99911.06;;;29.47;43.62
11672;BME280;5892;43.412;24.612;2023-05-25T12:20:12;99904.56;;;29.51;43.30
11672;BME280;5892;43.412;24.612;2023-05-25T12:22:40;99882.22;;;29.15;42.76
11672;BME280;5892;43.412;24.612;2023-05-25T12:25:09;99902.88;;;28.95;42.88
11672;BME280;5892;43.412;24.612;2023-05-25T12:27:36;99898.34;;;28.85;44.97
11672;BME280;5892;43.412;24.612;2023-05-25T12:30:06;99900.09;;;28.79;45.70
11672;BME280;5892;43.412;24.612;2023-05-25T12:32:33;99897.91;;;28.87;47.15
11672;BME280;5892;43.412;24.612;2023-05-25T12:35:03;99894.69;;;28.72;46.16
11672;BME280;5892;43.412;24.612;2023-05-25T12:37:31;99887.09;;;28.53;49.12
11672;BME280;5892;43.412;24.612;2023-05-25T12:39:58;99895.66;;;28.49;51.96
11672;BME280;5892;43.412;24.612;2023-05-25T12:42:25;99904.22;;;28.13;54.40
11672;BME280;5892;43.412;24.612;2023-05-25T12:44:54;99907.38;;;28.15;54.49
11672;BME280;5892;43.412;24.612;2023-05-25T12:47:23;99905.59;;;28.21;54.83
11672;BME280;5892;43.412;24.612;2023-05-25T12:50:10;99897.78;;;28.45;54.97
11672;BME280;5892;43.412;24.612;2023-05-25T12:52:39;99913.19;;;28.25;55.35
11672;BME280;5892;43.412;24.612;2023-05-25T12:55:23;99909.69;;;28.20;54.74
11672;BME280;5892;43.412;24.612;2023-05-25T12:57:54;99904.47;;;28.35;54.41
11672;BME280;5892;43.412;24.612;2023-05-25T13:00:23;99909.03;;;28.45;53.73